Ghent, NY (12075)

11:57 PM EST on February 10, 2016 (GMT -0500)
NonFedAWOS | | Change Station
CLOSE
Current Station
Personal Weather Station
Location: Ghent, NY
Elevation: 197 ft
Nearby Weather Stations

Elev 197 ft 42.29 °N, 73.71 °W | Updated 45 minutes ago

Overcast
Overcast
28 °F
Feels Like 21 °F
N
6
Wind Variable Wind from NW
Gusts 0.0 mph

Today
High -- | Low -- °F
--% Chance of Precip.
Yesterday
High -- | Low -- °F
Precip. -- in
Pressure 29.67 in
Visibility 10.0 miles
Clouds Few 4300 ft
Overcast 6000 ft
Windchill 21 °F
Dew Point 16 °F
Humidity 59%
Rainfall in
Snow Depth Not available.
6:58 AM 5:20 PM
Waxing Crescent, 9% visible
METAR KPSF 110454Z AUTO 29010G15KT 10SM FEW043 OVC060 M05/M11 A2963 RMK AO2 SLP046 T10501106 400001061
Pressure 29.67 in
Visibility 10.0 miles
Clouds Few 4300 ft
Overcast 6000 ft
Windchill 21 °F
Dew Point 16 °F
Humidity 59%
Rainfall in
Snow Depth Not available.
6:58 AM 5:20 PM
Waxing Crescent, 9% visible
METAR KPSF 110454Z AUTO 29010G15KT 10SM FEW043 OVC060 M05/M11 A2963 RMK AO2 SLP046 T10501106 400001061

10-Day Weather Forecast

Almanac

Astronomy

Feb. 10, 2016 Rise Set
Actual Time
Civil Twilight
Nautical Twilight
Astronomical Twilight
Moon
Length of Visible Light
Length of Day
Tomorrow will be .
, % of the Moon is Illuminated

Today's Extremes

State Highs State Lows

Community

WunderPhotos

Upload Photos

1,892,015 photos uploaded!

WunderBlog® & News

Nearby

Air Quality

  Air Quality AQ Index Pollutant
Not available.

Snow Depth

Station Depth Elevation

Earthquake Activity

City Distance Mag. Time & Date
Minimum magnitude displayed is 2.5.

Coastal Water Temperatures

Place Temperature

Stations

Nearby Weather Stations

Station Location Temp. Windchill Dew Point Humidity Wind Precip. Elev Updated Type
                   

Watches & Warnings

There are currently no watches in effect.